Terminal Aerodrome Forecast
Issued by NWS Charleston, WV

Current Version | Previous Version | Text Only | Print | Product List | Glossary Off
Versions: 1 2 3 4 5 6 7 8 9 10 11 12 13 14 15 16 17 18 19 20 21 22 23 24 25 26 27 28 29 30

000
FTUS41 KRLX 191000 AAC
TAFBKW
TAF AMD
KBKW 191005Z 1910/2006 00000KT 3SM BR OVC003
      TEMPO 1910/1913 1SM BR OVC001
     FM191400 VRB03KT 1SM BR SCT001 BKN008
     FM191500 VRB03KT 4SM BR BKN008
     FM191600 30004KT 6SM HZ BKN012
     FM191900 31005KT 6SM BR VCTS BKN025CB
     FM192100 27005KT P6SM VCTS BKN035CB=

USA.gov is the U.S. government's official web portal to all federal, state and local government web resources and services.